Time;durP1;ratioP1;P1;durP2;ratioP2;P2;SDS_P1;SDS_P2;PMS_P1;PMS_P2;Temp;Humidity;BMP_temperature;BMP_pressure;BME280_temperature;BME280_humidity;BME280_pressure;Samples;Min_cycle;Max_cycle;Signal;HPM_P1;HPM_P2
2021/12/28 00:00:21;;;;;;;1999.90;999.90;;;7.20;99.90;;;;;;4951917;28;20790;-68
2021/12/28 00:02:48;;;;;;;1999.90;999.90;;;7.20;99.90;;;;;;4951668;28;20435;-66
2021/12/28 00:05:15;;;;;;;1999.90;999.90;;;7.20;99.90;;;;;;4951444;28;20494;-67
2021/12/28 00:07:41;;;;;;;1999.90;999.90;;;7.20;99.90;;;;;;4951489;28;20451;-67
2021/12/28 00:10:09;;;;;;;1999.90;999.90;;;7.20;99.90;;;;;;4951578;28;20462;-67
2021/12/28 00:12:38;;;;;;;1999.90;999.90;;;7.20;99.90;;;;;;4951375;28;20447;-66
2021/12/28 00:15:18;;;;;;;1999.90;999.90;;;7.20;99.90;;;;;;4951263;28;20411;-67
2021/12/28 00:18:00;;;;;;;1999.90;999.90;;;7.20;99.90;;;;;;4951578;28;20425;-67
2021/12/28 00:20:47;;;;;;;1999.90;999.90;;;7.20;99.90;;;;;;4951435;28;20406;-67
2021/12/28 00:23:17;;;;;;;1999.90;999.90;;;7.20;99.90;;;;;;4951619;28;20466;-68
2021/12/28 00:25:44;;;;;;;1999.90;999.90;;;7.20;99.90;;;;;;4951494;28;20450;-67
2021/12/28 00:28:09;;;;;;;1999.90;999.90;;;7.20;99.90;;;;;;4951616;28;20406;-67
2021/12/28 00:30:35;;;;;;;1999.90;999.90;;;7.30;99.90;;;;;;4951258;29;20411;-68
2021/12/28 00:33:03;;;;;;;1999.90;999.90;;;7.30;99.90;;;;;;4951210;28;20233;-68
2021/12/28 00:35:34;;;;;;;1999.90;999.90;;;7.40;99.90;;;;;;4951183;28;20407;-67
2021/12/28 00:38:00;;;;;;;1999.90;999.90;;;7.60;99.90;;;;;;4951250;28;20423;-65
2021/12/28 00:40:26;;;;;;;1999.90;999.90;;;7.70;99.90;;;;;;4951197;28;20411;-67
2021/12/28 00:42:52;;;;;;;1999.90;999.90;;;7.80;99.90;;;;;;4951073;28;20462;-67
2021/12/28 00:45:18;;;;;;;1999.90;999.90;;;7.80;99.90;;;;;;4951035;28;20190;-66
2021/12/28 00:47:45;;;;;;;1999.90;999.90;;;7.90;99.90;;;;;;4951099;28;20463;-67
2021/12/28 00:50:13;;;;;;;1999.90;999.90;;;8.00;99.90;;;;;;4951090;29;20921;-66
2021/12/28 00:52:40;;;;;;;1999.90;999.90;;;8.10;99.90;;;;;;4950915;28;20448;-67
2021/12/28 00:55:06;;;;;;;1999.90;999.90;;;8.30;99.90;;;;;;4950749;28;20980;-66
2021/12/28 00:57:32;;;;;;;1999.90;999.90;;;8.30;99.90;;;;;;4951083;28;20410;-68
2021/12/28 00:59:57;;;;;;;1999.90;999.90;;;8.40;99.90;;;;;;4950951;29;20430;-67
2021/12/28 01:02:23;;;;;;;1999.90;999.90;;;8.60;99.90;;;;;;4950903;28;20199;-67
2021/12/28 01:04:49;;;;;;;1999.90;999.90;;;8.70;99.90;;;;;;4950697;29;20183;-66
2021/12/28 01:07:14;;;;;;;1999.90;999.90;;;8.70;99.90;;;;;;4950845;29;20239;-66
2021/12/28 01:09:42;;;;;;;1999.90;999.90;;;8.70;99.90;;;;;;4950923;29;20230;-67
2021/12/28 01:12:09;;;;;;;1999.90;999.90;;;8.80;99.90;;;;;;4950687;28;20602;-67
2021/12/28 01:14:35;;;;;;;1999.90;999.90;;;8.90;99.90;;;;;;4950554;28;20404;-67
2021/12/28 01:17:02;;;;;;;1999.90;999.90;;;9.00;99.90;;;;;;4950778;28;20411;-66
2021/12/28 01:19:28;;;;;;;1999.90;999.90;;;9.00;99.90;;;;;;4951023;28;20772;-68
2021/12/28 01:21:54;;;;;;;1999.90;999.90;;;9.00;99.90;;;;;;4950668;28;20474;-68
2021/12/28 01:24:19;;;;;;;1999.90;999.90;;;9.00;99.90;;;;;;4950426;28;20440;-67
2021/12/28 01:26:46;;;;;;;1999.90;999.90;;;9.00;99.90;;;;;;4950649;29;20446;-66
2021/12/28 01:29:12;;;;;;;1999.90;999.90;;;9.00;99.90;;;;;;4950607;28;20168;-67
2021/12/28 01:31:37;;;;;;;1999.90;999.90;;;9.10;99.90;;;;;;4951039;28;20531;-67
2021/12/28 01:34:08;;;;;;;1999.90;999.90;;;9.10;99.90;;;;;;4953758;29;20173;-67
2021/12/28 01:36:34;;;;;;;1999.90;999.90;;;9.10;99.90;;;;;;4953981;28;20206;-66
2021/12/28 01:39:04;;;;;;;1999.90;999.90;;;9.20;99.90;;;;;;4953929;28;20411;-67
2021/12/28 01:41:29;;;;;;;1999.90;999.90;;;9.20;99.90;;;;;;4953731;28;20437;-66
2021/12/28 01:43:57;;;;;;;1999.90;999.90;;;9.20;99.90;;;;;;4953727;28;20458;-65
2021/12/28 01:46:23;;;;;;;1999.90;999.90;;;9.20;99.90;;;;;;4953493;28;20450;-68
2021/12/28 01:48:48;;;;;;;1999.90;999.90;;;9.10;99.90;;;;;;4953761;29;20409;-68
2021/12/28 01:51:20;;;;;;;1999.90;999.90;;;9.10;99.90;;;;;;4953595;28;20579;-67
2021/12/28 01:53:48;;;;;;;1999.90;999.90;;;9.10;99.90;;;;;;4953587;28;20188;-67
2021/12/28 01:56:17;;;;;;;1999.90;999.90;;;9.10;99.90;;;;;;4953399;28;20437;-67
2021/12/28 01:58:43;;;;;;;1999.90;999.90;;;9.10;99.90;;;;;;4953559;28;20408;-67
2021/12/28 02:01:09;;;;;;;1999.90;999.90;;;9.20;99.90;;;;;;4953476;28;20442;-67
2021/12/28 02:03:39;;;;;;;1999.90;999.90;;;9.20;99.90;;;;;;4953539;28;20422;-68
2021/12/28 02:06:06;;;;;;;1999.90;999.90;;;9.30;99.90;;;;;;4953184;28;20448;-66
2021/12/28 02:08:32;;;;;;;1999.90;999.90;;;9.20;99.90;;;;;;4953390;28;20899;-67
2021/12/28 02:10:58;;;;;;;1999.90;999.90;;;9.30;99.90;;;;;;4953200;28;20436;-66
2021/12/28 02:13:25;;;;;;;1999.90;999.90;;;9.30;99.90;;;;;;4953344;29;20456;-68
2021/12/28 02:15:51;;;;;;;1999.90;999.90;;;9.30;99.90;;;;;;4953092;28;20490;-66
2021/12/28 02:18:20;;;;;;;1999.90;999.90;;;9.40;99.90;;;;;;4953329;28;20469;-67
2021/12/28 02:20:47;;;;;;;1999.90;999.90;;;9.40;99.90;;;;;;4953382;28;20468;-67
2021/12/28 02:23:13;;;;;;;1999.90;999.90;;;9.40;99.90;;;;;;4953245;28;20778;-67
2021/12/28 02:25:39;;;;;;;1999.90;999.90;;;9.40;99.90;;;;;;4952943;28;20411;-67
2021/12/28 02:28:09;;;;;;;1999.90;999.90;;;9.40;99.90;;;;;;4953193;28;20539;-67
2021/12/28 02:30:36;;;;;;;1999.90;999.90;;;9.40;99.90;;;;;;4953131;28;20494;-67
2021/12/28 02:33:03;;;;;;;1999.90;999.90;;;9.40;99.90;;;;;;4953107;28;20816;-68
2021/12/28 02:35:29;;;;;;;1999.90;999.90;;;9.40;99.90;;;;;;4952749;28;20415;-67
2021/12/28 02:37:55;;;;;;;1999.90;999.90;;;9.40;99.90;;;;;;4953271;28;20423;-66
2021/12/28 02:40:27;;;;;;;1999.90;999.90;;;9.50;99.90;;;;;;4952953;29;20198;-66
2021/12/28 02:42:54;;;;;;;1999.90;999.90;;;9.40;99.90;;;;;;4952822;28;20961;-68
2021/12/28 02:45:23;;;;;;;1999.90;999.90;;;9.40;99.90;;;;;;4952513;28;20893;-67
2021/12/28 02:47:49;;;;;;;1999.90;999.90;;;9.40;99.90;;;;;;4952787;28;20447;-67
2021/12/28 02:50:49;;;;;;;1999.90;999.90;;;9.40;99.90;;;;;;4952944;28;20413;-67
2021/12/28 02:53:18;;;;;;;1999.90;999.90;;;9.30;99.90;;;;;;4953495;28;20470;-66
2021/12/28 02:55:44;;;;;;;1999.90;999.90;;;9.30;99.90;;;;;;4952452;28;20452;-67
2021/12/28 02:58:21;;;;;;;1999.90;999.90;;;9.30;99.90;;;;;;4952778;28;20866;-68
2021/12/28 03:00:52;;;;;;;1999.90;999.90;;;9.20;99.90;;;;;;4952709;28;20499;-66
2021/12/28 03:03:20;;;;;;;1999.90;999.90;;;9.20;99.90;;;;;;4952804;28;20416;-67
2021/12/28 03:05:49;;;;;;;1999.90;999.90;;;9.20;99.90;;;;;;4952318;28;20411;-67
2021/12/28 03:08:17;;;;;;;1999.90;999.90;;;9.10;99.90;;;;;;4952514;28;20419;-67
2021/12/28 03:10:44;;;;;;;1999.90;999.90;;;9.10;99.90;;;;;;4952339;28;20407;-67
2021/12/28 03:13:18;;;;;;;1999.90;999.90;;;9.10;99.90;;;;;;4952517;28;20519;-67
2021/12/28 03:15:44;;;;;;;1999.90;999.90;;;9.00;99.90;;;;;;4952238;28;20409;-66
2021/12/28 03:18:10;;;;;;;1999.90;999.90;;;9.00;99.90;;;;;;4952389;29;20481;-67
2021/12/28 03:20:36;;;;;;;1999.90;999.90;;;8.90;99.90;;;;;;4952358;29;20251;-67
2021/12/28 03:23:03;;;;;;;1999.90;999.90;;;8.90;99.90;;;;;;4952313;28;20790;-66
2021/12/28 03:25:28;;;;;;;1999.90;999.90;;;8.90;99.90;;;;;;4951863;28;20444;-67
2021/12/28 03:27:54;;;;;;;1999.90;999.90;;;8.90;99.90;;;;;;4952196;28;20496;-67
2021/12/28 03:30:19;;;;;;;1999.90;999.90;;;8.90;99.90;;;;;;4952221;29;20743;-67
2021/12/28 03:32:45;;;;;;;1999.90;999.90;;;8.90;99.90;;;;;;4952173;28;20192;-67
2021/12/28 03:35:13;;;;;;;1999.90;999.90;;;8.90;99.90;;;;;;4951922;29;20163;-66
2021/12/28 03:37:40;;;;;;;1999.90;999.90;;;9.00;99.90;;;;;;4952146;28;20781;-67
2021/12/28 03:40:09;;;;;;;1999.90;999.90;;;9.00;99.90;;;;;;4952065;28;20418;-67
2021/12/28 03:42:35;;;;;;;1999.90;999.90;;;9.20;99.90;;;;;;4952200;28;20430;-67
2021/12/28 03:45:01;;;;;;;1999.90;999.90;;;9.20;99.90;;;;;;4951781;28;20482;-67
2021/12/28 03:47:27;;;;;;;1999.90;999.90;;;9.30;99.90;;;;;;4951879;28;20830;-66
2021/12/28 03:49:52;;;;;;;1999.90;999.90;;;9.40;99.90;;;;;;4951921;29;20405;-66
2021/12/28 03:52:18;;;;;;;1999.90;999.90;;;9.50;99.90;;;;;;4951809;28;20189;-67
2021/12/28 03:54:43;;;;;;;1999.90;999.90;;;9.50;99.90;;;;;;4950925;28;20218;-67
2021/12/28 03:57:09;;;;;;;1999.90;999.90;;;9.60;99.90;;;;;;4951842;29;20670;-67
2021/12/28 03:59:35;;;;;;;1999.90;999.90;;;9.60;99.90;;;;;;4951940;28;20178;-67
2021/12/28 04:02:01;;;;;;;1999.90;999.90;;;9.50;99.90;;;;;;4951701;28;20280;-67
2021/12/28 04:04:26;;;;;;;1999.90;999.90;;;9.60;99.90;;;;;;4951481;28;20174;-67
2021/12/28 04:06:52;;;;;;;1999.90;999.90;;;9.70;99.90;;;;;;4952054;29;20208;-66
2021/12/28 04:09:23;;;;;;;1999.90;999.90;;;9.70;99.90;;;;;;4951599;28;20238;-66
2021/12/28 04:11:49;;;;;;;1999.90;999.90;;;9.70;99.90;;;;;;4951523;28;20243;-66
2021/12/28 04:14:15;;;;;;;1999.90;999.90;;;9.70;99.90;;;;;;4951465;28;20407;-66
2021/12/28 04:16:41;;;;;;;1999.90;999.90;;;9.60;99.90;;;;;;4951550;28;20504;-66
2021/12/28 04:19:07;;;;;;;1999.90;999.90;;;9.70;99.90;;;;;;4951571;28;20912;-66
2021/12/28 04:21:35;;;;;;;1999.90;999.90;;;9.60;99.90;;;;;;4951402;28;20778;-66
2021/12/28 04:24:01;;;;;;;1999.90;999.90;;;9.60;99.90;;;;;;4951240;28;20179;-66
2021/12/28 04:26:28;;;;;;;1999.90;999.90;;;9.60;99.90;;;;;;4951525;28;20473;-65
2021/12/28 04:28:55;;;;;;;1999.90;999.90;;;9.60;99.90;;;;;;4951403;28;20428;-67
2021/12/28 04:31:21;;;;;;;1999.90;999.90;;;9.60;99.90;;;;;;4951449;28;20434;-65
2021/12/28 04:33:47;;;;;;;1999.90;999.90;;;9.60;99.90;;;;;;4951329;28;20508;-66
2021/12/28 04:36:15;;;;;;;1999.90;999.90;;;9.70;99.90;;;;;;4951023;29;20855;-66
2021/12/28 04:38:43;;;;;;;1999.90;999.90;;;9.70;99.90;;;;;;4951202;28;20174;-66
2021/12/28 04:41:10;;;;;;;1999.90;999.90;;;9.70;99.90;;;;;;4951223;28;20439;-66
2021/12/28 04:43:36;;;;;;;1999.90;999.90;;;9.70;99.90;;;;;;4951229;28;20465;-66
2021/12/28 04:46:03;;;;;;;1999.90;999.90;;;9.70;99.90;;;;;;4950997;28;20781;-66
2021/12/28 04:48:28;;;;;;;1999.90;999.90;;;9.70;99.90;;;;;;4951377;28;20406;-66
2021/12/28 04:50:54;;;;;;;1999.90;999.90;;;9.70;99.90;;;;;;4951143;28;20906;-66
2021/12/28 04:53:20;;;;;;;1999.90;999.90;;;9.70;99.90;;;;;;4951369;29;20173;-66
2021/12/28 04:55:48;;;;;;;1999.90;999.90;;;9.70;99.90;;;;;;4950840;28;20663;-66
2021/12/28 04:58:14;;;;;;;1999.90;999.90;;;9.70;99.90;;;;;;4951189;28;20549;-66
2021/12/28 05:00:42;;;;;;;1999.90;999.90;;;9.70;99.90;;;;;;4950982;28;20418;-66
2021/12/28 05:03:08;;;;;;;1999.90;999.90;;;9.70;99.90;;;;;;4950940;28;20431;-66
2021/12/28 05:05:35;;;;;;;1999.90;999.90;;;9.80;99.90;;;;;;4950617;28;20419;-65
2021/12/28 05:08:04;;;;;;;1999.90;999.90;;;9.80;99.90;;;;;;4953287;28;20457;-66
2021/12/28 05:10:29;;;;;;;1999.90;999.90;;;9.80;99.90;;;;;;4955112;28;20404;-66
2021/12/28 05:12:55;;;;;;;1999.90;999.90;;;9.80;99.90;;;;;;4954159;28;20498;-66
2021/12/28 05:15:21;;;;;;;1999.90;999.90;;;9.70;99.90;;;;;;4954020;29;20442;-65
2021/12/28 05:17:46;;;;;;;1999.90;999.90;;;9.70;99.90;;;;;;4954251;28;20185;-66
2021/12/28 05:20:13;;;;;;;1999.90;999.90;;;9.70;99.90;;;;;;4954197;29;20177;-66
2021/12/28 05:22:39;;;;;;;1999.90;999.90;;;9.70;99.90;;;;;;4954061;28;20247;-66
2021/12/28 05:25:05;;;;;;;1999.90;999.90;;;9.70;99.90;;;;;;4953885;28;20825;-66
2021/12/28 05:27:31;;;;;;;1999.90;999.90;;;9.70;99.90;;;;;;4954011;28;20460;-66
2021/12/28 05:29:56;;;;;;;1999.90;999.90;;;9.60;99.90;;;;;;4954017;29;20790;-66
2021/12/28 05:32:22;;;;;;;1999.90;999.90;;;9.60;99.90;;;;;;4953955;28;20198;-66
2021/12/28 05:34:48;;;;;;;1999.90;999.90;;;9.60;99.90;;;;;;4953676;29;20173;-66
2021/12/28 05:37:13;;;;;;;1999.90;999.90;;;9.70;99.90;;;;;;4953929;29;20183;-66
2021/12/28 05:39:39;;;;;;;1999.90;999.90;;;9.70;99.90;;;;;;4953907;29;20633;-66
2021/12/28 05:42:05;;;;;;;1999.90;999.90;;;9.70;99.90;;;;;;4953890;28;20207;-66
2021/12/28 05:44:31;;;;;;;1999.90;999.90;;;9.70;99.90;;;;;;4953506;28;20177;-66
2021/12/28 05:46:57;;;;;;;1999.90;999.90;;;9.70;99.90;;;;;;4953719;29;20801;-66
2021/12/28 05:49:25;;;;;;;1999.90;999.90;;;9.70;99.90;;;;;;4953748;29;20558;-66
2021/12/28 05:51:51;;;;;;;1999.90;999.90;;;9.70;99.90;;;;;;4953529;28;20249;-66
2021/12/28 05:54:17;;;;;;;1999.90;999.90;;;9.70;99.90;;;;;;4953425;28;20941;-66
2021/12/28 05:56:43;;;;;;;1999.90;999.90;;;9.70;99.90;;;;;;4953593;28;20411;-66
2021/12/28 05:59:09;;;;;;;1999.90;999.90;;;9.60;99.90;;;;;;4953649;28;20420;-66
2021/12/28 06:01:35;;;;;;;1999.90;999.90;;;9.70;99.90;;;;;;4953785;28;20952;-66
2021/12/28 06:04:00;;;;;;;1999.90;999.90;;;9.70;99.90;;;;;;4953299;28;20173;-66
2021/12/28 06:06:26;;;;;;;1999.90;999.90;;;9.70;99.90;;;;;;4953406;29;20658;-66
2021/12/28 06:08:52;;;;;;;1999.90;999.90;;;9.70;99.90;;;;;;4953460;29;20193;-66
2021/12/28 06:11:19;;;;;;;1999.90;999.90;;;9.70;99.90;;;;;;4953390;28;20817;-67
2021/12/28 06:13:45;;;;;;;1999.90;999.90;;;9.60;99.90;;;;;;4953377;28;20494;-66
2021/12/28 06:16:11;;;;;;;1999.90;999.90;;;9.70;99.90;;;;;;4953057;29;20899;-66
2021/12/28 06:18:37;;;;;;;1999.90;999.90;;;9.60;99.90;;;;;;4953156;28;20759;-66
2021/12/28 06:21:04;;;;;;;1999.90;999.90;;;9.60;99.90;;;;;;4953251;28;20416;-66
2021/12/28 06:23:29;;;;;;;1999.90;999.90;;;9.60;99.90;;;;;;4953296;28;20782;-66
2021/12/28 06:25:55;;;;;;;1999.90;999.90;;;9.60;99.90;;;;;;4952886;29;20487;-66
2021/12/28 06:28:21;;;;;;;1999.90;999.90;;;9.50;99.90;;;;;;4953314;29;20169;-66
2021/12/28 06:30:46;;;;;;;1999.90;999.90;;;9.50;99.90;;;;;;4953090;29;20214;-66
2021/12/28 06:33:12;;;;;;;1999.90;999.90;;;9.40;99.90;;;;;;4953152;28;20187;-66
2021/12/28 06:35:38;;;;;;;1999.90;999.90;;;9.50;99.90;;;;;;4952767;29;20181;-66
2021/12/28 06:38:03;;;;;;;1999.90;999.90;;;9.40;99.90;;;;;;4953085;29;20263;-66
2021/12/28 06:40:29;;;;;;;1999.90;999.90;;;9.40;99.90;;;;;;4953019;29;20522;-66
2021/12/28 06:42:54;;;;;;;1999.90;999.90;;;9.40;99.90;;;;;;4952903;28;20191;-66
2021/12/28 06:45:21;;;;;;;1999.90;999.90;;;9.40;99.90;;;;;;4952650;29;20237;-66
2021/12/28 06:47:46;;;;;;;1999.90;999.90;;;9.30;99.90;;;;;;4952853;28;20199;-66
2021/12/28 06:50:12;;;;;;;1999.90;999.90;;;9.30;99.90;;;;;;4952873;29;20402;-66
2021/12/28 06:52:39;;;;;;;1999.90;999.90;;;9.30;99.90;;;;;;4952746;28;20284;-66
2021/12/28 06:55:07;;;;;;;1999.90;999.90;;;9.30;99.90;;;;;;4952450;28;20420;-66
2021/12/28 06:57:33;;;;;;;1999.90;999.90;;;9.30;99.90;;;;;;4952728;28;20399;-66
2021/12/28 06:59:58;;;;;;;1999.90;999.90;;;9.40;99.90;;;;;;4952682;29;20410;-66
2021/12/28 07:02:24;;;;;;;1999.90;999.90;;;9.40;99.90;;;;;;4952576;28;20521;-66
2021/12/28 07:04:50;;;;;;;1999.90;999.90;;;9.30;99.90;;;;;;4952365;29;20226;-66
2021/12/28 07:07:16;;;;;;;1999.90;999.90;;;9.30;99.90;;;;;;4952696;28;20209;-66
2021/12/28 07:09:42;;;;;;;1999.90;999.90;;;9.30;99.90;;;;;;4952512;29;20428;-66
2021/12/28 07:12:09;;;;;;;1999.90;999.90;;;9.30;99.90;;;;;;4952350;28;20205;-66
2021/12/28 07:14:34;;;;;;;1999.90;999.90;;;9.30;99.90;;;;;;4952213;28;20412;-66
2021/12/28 07:17:00;;;;;;;1999.90;999.90;;;9.20;99.90;;;;;;4952466;28;20963;-66
2021/12/28 07:19:26;;;;;;;1999.90;999.90;;;9.10;99.90;;;;;;4952407;29;20227;-66
2021/12/28 07:21:52;;;;;;;1999.90;999.90;;;9.00;99.90;;;;;;4952231;28;20642;-66
2021/12/28 07:24:18;;;;;;;1999.90;999.90;;;9.00;99.90;;;;;;4952112;28;20473;-66
2021/12/28 07:26:44;;;;;;;1999.90;999.90;;;8.90;99.90;;;;;;4952251;28;20967;-66
2021/12/28 07:29:11;;;;;;;1999.90;999.90;;;8.80;99.90;;;;;;4951505;28;20413;-67
2021/12/28 07:31:37;;;;;;;1999.90;999.90;;;8.80;99.90;;;;;;4952110;28;20198;-66
2021/12/28 07:34:03;;;;;;;1999.90;999.90;;;8.80;99.90;;;;;;4951927;28;20403;-66
2021/12/28 07:36:28;;;;;;;1999.90;999.90;;;8.80;99.90;;;;;;4952199;28;20492;-66
2021/12/28 07:38:54;;;;;;;1999.90;999.90;;;8.80;99.90;;;;;;4952098;28;20173;-66
2021/12/28 07:41:20;;;;;;;1999.90;999.90;;;8.90;99.90;;;;;;4952070;28;20187;-66
2021/12/28 07:43:46;;;;;;;1999.90;999.90;;;8.90;99.90;;;;;;4951938;28;20172;-66
2021/12/28 07:46:12;;;;;;;1999.90;999.90;;;8.90;99.90;;;;;;4951842;28;20429;-66
2021/12/28 07:48:38;;;;;;;1999.90;999.90;;;8.90;99.90;;;;;;4952013;28;20178;-66
2021/12/28 07:51:04;;;;;;;1999.90;999.90;;;9.00;99.90;;;;;;4951832;28;20172;-66
2021/12/28 07:53:29;;;;;;;1999.90;999.90;;;9.00;99.90;;;;;;4951979;29;20407;-66
2021/12/28 07:55:57;;;;;;;1999.90;999.90;;;9.00;99.90;;;;;;4951561;29;20180;-66
2021/12/28 07:58:24;;;;;;;1999.90;999.90;;;9.00;99.90;;;;;;4951812;28;20200;-67
2021/12/28 08:00:50;;;;;;;1999.90;999.90;;;9.10;99.90;;;;;;4951955;28;20415;-66
2021/12/28 08:03:16;;;;;;;1999.90;999.90;;;9.10;99.90;;;;;;4951737;29;20885;-66
2021/12/28 08:05:41;;;;;;;1999.90;999.90;;;9.10;99.90;;;;;;4951444;28;20510;-66
2021/12/28 08:08:07;;;;;;;1999.90;999.90;;;9.10;99.90;;;;;;4951631;29;20200;-66
2021/12/28 08:10:32;;;;;;;1999.90;999.90;;;9.10;99.90;;;;;;4951622;28;20198;-66
2021/12/28 08:12:58;;;;;;;1999.90;999.90;;;9.10;99.90;;;;;;4951509;28;20248;-65
2021/12/28 08:15:25;;;;;;;1999.90;999.90;;;9.10;99.90;;;;;;4951337;29;20184;-66
2021/12/28 08:17:51;;;;;;;1999.90;999.90;;;9.10;99.90;;;;;;4951517;28;20179;-66
2021/12/28 08:20:18;;;;;;;1999.90;999.90;;;9.20;99.90;;;;;;4951502;29;20407;-66
2021/12/28 08:22:45;;;;;;;1999.90;999.90;;;9.20;99.90;;;;;;4951420;28;20463;-66
2021/12/28 08:25:13;;;;;;;1999.90;999.90;;;9.20;99.90;;;;;;4951246;28;20411;-65
2021/12/28 08:27:40;;;;;;;1999.90;999.90;;;9.20;99.90;;;;;;4951401;28;20845;-66
2021/12/28 08:30:07;;;;;;;1999.90;999.90;;;9.20;99.90;;;;;;4951421;28;20458;-66
2021/12/28 08:32:33;;;;;;;1999.90;999.90;;;9.30;99.90;;;;;;4951333;28;20434;-66
2021/12/28 08:34:58;;;;;;;1999.90;999.90;;;9.30;99.90;;;;;;4950996;28;20407;-66
2021/12/28 08:37:24;;;;;;;1999.90;999.90;;;9.30;99.90;;;;;;4951338;29;20408;-66
2021/12/28 08:39:50;;;;;;;1999.90;999.90;;;9.40;99.90;;;;;;4951256;29;20179;-66
2021/12/28 08:42:16;;;;;;;1999.90;999.90;;;9.50;99.90;;;;;;4950999;28;20187;-66
2021/12/28 08:44:42;;;;;;;1999.90;999.90;;;9.60;99.90;;;;;;4950953;28;20171;-66
2021/12/28 08:47:08;;;;;;;1999.90;999.90;;;9.60;99.90;;;;;;4951035;29;20962;-66
2021/12/28 08:49:34;;;;;;;1999.90;999.90;;;9.70;99.90;;;;;;4951426;29;20403;-66
2021/12/28 08:52:00;;;;;;;1999.90;999.90;;;9.70;99.90;;;;;;4951079;28;20213;-66
2021/12/28 08:54:25;;;;;;;1999.90;999.90;;;9.70;99.90;;;;;;4950805;29;20499;-66
2021/12/28 08:56:52;;;;;;;1999.90;999.90;;;9.80;99.90;;;;;;4950974;29;20190;-65
2021/12/28 08:59:18;;;;;;;1999.90;999.90;;;9.90;99.90;;;;;;4951251;28;20178;-66
2021/12/28 09:01:44;;;;;;;1999.90;999.90;;;10.00;99.90;;;;;;4950953;28;20477;-66
2021/12/28 09:04:10;;;;;;;1999.90;999.90;;;10.00;99.90;;;;;;4950656;28;20421;-66
2021/12/28 09:06:36;;;;;;;1999.90;999.90;;;10.10;99.90;;;;;;4950925;29;20546;-66
2021/12/28 09:09:02;;;;;;;1999.90;999.90;;;10.20;99.90;;;;;;4950906;29;20175;-66
2021/12/28 09:11:27;;;;;;;1999.90;999.90;;;10.20;99.90;;;;;;4950684;28;20202;-66
2021/12/28 09:13:53;;;;;;;1999.90;999.90;;;10.30;99.90;;;;;;4950833;29;20409;-66
2021/12/28 09:16:19;;;;;;;1999.90;999.90;;;10.30;99.90;;;;;;4950761;28;20174;-66
2021/12/28 09:18:45;;;;;;;1999.90;999.90;;;10.30;99.90;;;;;;4950960;28;20668;-66
2021/12/28 09:21:11;;;;;;;1999.90;999.90;;;10.30;99.90;;;;;;4950846;28;20425;-66
2021/12/28 09:23:38;;;;;;;1999.90;999.90;;;10.30;99.90;;;;;;4950767;29;20975;-66
2021/12/28 09:26:05;;;;;;;1999.90;999.90;;;10.30;99.90;;;;;;4950358;28;20174;-66
2021/12/28 09:28:30;;;;;;;1999.90;999.90;;;10.30;99.90;;;;;;4950735;28;20400;-66
2021/12/28 09:30:57;;;;;;;1999.90;999.90;;;10.40;99.90;;;;;;4945289;28;20418;-66
2021/12/28 09:33:24;;;;;;;1999.90;999.90;;;10.30;99.90;;;;;;4947825;28;20539;-66
2021/12/28 09:35:51;;;;;;;1999.90;999.90;;;10.40;99.90;;;;;;4948215;28;20444;-66
2021/12/28 09:38:19;;;;;;;1999.90;999.90;;;10.50;99.90;;;;;;4948052;28;20413;-66
2021/12/28 09:40:46;;;;;;;1999.90;999.90;;;10.50;99.90;;;;;;4949153;29;20507;-66
2021/12/28 09:43:13;;;;;;;1999.90;999.90;;;10.60;99.90;;;;;;4948794;28;20837;-66
2021/12/28 09:45:39;;;;;;;1999.90;999.90;;;10.70;99.90;;;;;;4948244;28;20512;-67
2021/12/28 09:48:05;;;;;;;1999.90;999.90;;;10.70;99.90;;;;;;4948701;29;20482;-65
2021/12/28 09:50:31;;;;;;;1999.90;999.90;;;10.70;99.90;;;;;;4949102;28;20181;-66
2021/12/28 09:52:57;;;;;;;1999.90;999.90;;;10.70;99.90;;;;;;4949024;28;20529;-66
2021/12/28 09:55:24;;;;;;;1999.90;999.90;;;10.70;99.90;;;;;;4952148;28;20497;-66
2021/12/28 09:57:51;;;;;;;1999.90;999.90;;;10.70;99.90;;;;;;4952025;28;20183;-66
2021/12/28 10:00:18;;;;;;;1999.90;999.90;;;10.80;99.90;;;;;;4951699;28;20414;-66
2021/12/28 10:02:44;;;;;;;1999.90;999.90;;;10.90;99.90;;;;;;4951675;28;20503;-66
2021/12/28 10:05:13;;;;;;;1999.90;999.90;;;10.90;99.90;;;;;;4951797;29;20448;-66
2021/12/28 10:07:44;;;;;;;1999.90;999.90;;;10.90;99.90;;;;;;4951268;28;20206;-66
2021/12/28 10:10:11;;;;;;;1999.90;999.90;;;10.90;99.90;;;;;;4952076;28;20497;-66
2021/12/28 10:12:40;;;;;;;1999.90;999.90;;;11.00;99.90;;;;;;4951592;28;20475;-66
2021/12/28 10:15:14;;;;;;;1999.90;999.90;;;11.00;99.90;;;;;;4951166;28;20445;-67
2021/12/28 10:17:43;;;;;;;1999.90;999.90;;;11.10;99.90;;;;;;4951705;28;20464;-67
2021/12/28 10:20:21;;;;;;;1999.90;999.90;;;11.10;99.90;;;;;;4951808;28;20927;-66
2021/12/28 10:22:53;;;;;;;1999.90;999.90;;;11.20;99.90;;;;;;4951399;28;20491;-66
2021/12/28 10:25:24;;;;;;;1999.90;999.90;;;11.30;99.90;;;;;;4951611;28;20520;-67
2021/12/28 10:27:53;;;;;;;1999.90;999.90;;;11.40;99.90;;;;;;4951530;28;21046;-66
2021/12/28 10:30:28;;;;;;;1999.90;999.90;;;11.50;99.90;;;;;;4951195;28;20468;-67
2021/12/28 10:32:59;;;;;;;1999.90;999.90;;;11.50;99.90;;;;;;4951328;28;20431;-67
2021/12/28 10:35:28;;;;;;;1999.90;999.90;;;11.60;99.90;;;;;;4949455;28;20941;-64
2021/12/28 10:37:57;;;;;;;1999.90;999.90;;;11.80;99.90;;;;;;4949879;28;20429;-64
2021/12/28 10:40:30;;;;;;;1999.90;999.90;;;11.90;99.90;;;;;;4951630;28;20410;-66
2021/12/28 10:43:09;;;;;;;1999.90;999.90;;;12.00;99.90;;;;;;4951000;28;20434;-65
2021/12/28 10:45:36;;;;;;;1999.90;999.90;;;12.10;99.90;;;;;;4951205;28;20797;-65
2021/12/28 10:48:14;;;;;;;1999.90;999.90;;;12.20;99.90;;;;;;4951318;28;20493;-66
2021/12/28 10:51:02;;;;;;;1999.90;999.90;;;12.30;99.90;;;;;;4950940;28;20425;-67
2021/12/28 10:53:37;;;;;;;1999.90;999.90;;;12.60;99.90;;;;;;4951164;28;20491;-67
2021/12/28 10:56:07;;;;;;;1999.90;999.90;;;12.80;99.90;;;;;;4950933;28;20452;-67
2021/12/28 10:58:44;;;;;;;1999.90;999.90;;;12.80;99.90;;;;;;4950696;28;20445;-67
2021/12/28 11:01:17;;;;;;;1999.90;999.90;;;12.70;99.90;;;;;;4951958;28;20414;-67
2021/12/28 11:03:49;;;;;;;1999.90;999.90;;;12.70;99.90;;;;;;4951868;28;20419;-67
2021/12/28 11:06:21;;;;;;;1999.90;999.90;;;12.70;99.90;;;;;;4950310;28;20414;-68
2021/12/28 11:08:50;;;;;;;1999.90;999.90;;;12.60;99.90;;;;;;4948852;28;20422;-66
2021/12/28 11:11:19;;;;;;;1999.90;999.90;;;12.60;99.90;;;;;;4947623;28;20549;-66
2021/12/28 11:13:45;;;;;;;1999.90;999.90;;;12.50;99.90;;;;;;4946381;28;20434;-66
2021/12/28 11:16:12;;;;;;;1999.90;999.90;;;12.50;99.90;;;;;;4945811;29;20519;-66
2021/12/28 11:18:44;;;;;;;1999.90;999.90;;;12.50;99.90;;;;;;4946907;28;20421;-67
2021/12/28 11:21:17;;;;;;;1999.90;999.90;;;12.50;99.90;;;;;;4945876;28;22080;-67
2021/12/28 11:23:45;;;;;;;1999.90;999.90;;;12.50;99.90;;;;;;4947037;28;20912;-66
2021/12/28 11:26:13;;;;;;;1999.90;999.90;;;12.40;99.90;;;;;;4945997;29;20419;-67
2021/12/28 11:28:40;;;;;;;1999.90;999.90;;;12.40;99.90;;;;;;4946418;29;20815;-66
2021/12/28 11:31:10;;;;;;;1999.90;999.90;;;12.20;99.90;;;;;;4946136;28;20423;-67
2021/12/28 11:33:42;;;;;;;1999.90;999.90;;;12.10;99.90;;;;;;4947196;28;20410;-67
2021/12/28 11:36:08;;;;;;;1999.90;999.90;;;11.90;99.90;;;;;;4946429;29;20442;-66
2021/12/28 11:38:34;;;;;;;1999.90;999.90;;;11.80;99.90;;;;;;4946389;28;20422;-67
2021/12/28 11:41:00;;;;;;;1999.90;999.90;;;11.60;99.90;;;;;;4946542;28;20410;-67
2021/12/28 11:43:26;;;;;;;1999.90;999.90;;;11.60;99.90;;;;;;4946122;28;20429;-66
2021/12/28 11:45:52;;;;;;;1999.90;999.90;;;11.40;99.90;;;;;;4946442;28;20418;-65
2021/12/28 11:48:19;;;;;;;1999.90;999.90;;;11.40;99.90;;;;;;4946997;28;20476;-66
2021/12/28 11:50:44;;;;;;;1999.90;999.90;;;11.30;99.90;;;;;;4945984;29;20796;-66
2021/12/28 11:53:14;;;;;;;1999.90;999.90;;;11.40;99.90;;;;;;4945796;28;20438;-66
2021/12/28 11:55:42;;;;;;;1999.90;999.90;;;11.40;99.90;;;;;;4946657;28;20417;-66
2021/12/28 11:58:08;;;;;;;1999.90;999.90;;;11.40;99.90;;;;;;4946467;28;20438;-67
2021/12/28 12:00:42;;;;;;;1999.90;999.90;;;11.50;99.90;;;;;;4946080;29;21096;-67
2021/12/28 12:03:07;;;;;;;1999.90;999.90;;;11.40;99.90;;;;;;4945876;28;20202;-66
2021/12/28 12:05:34;;;;;;;1999.90;999.90;;;11.40;99.90;;;;;;4945965;29;20789;-67